Time;durP1;ratioP1;P1;durP2;ratioP2;P2;SDS_P1;SDS_P2;PMS_P1;PMS_P2;Temp;Humidity;BMP_temperature;BMP_pressure;BME280_temperature;BME280_humidity;BME280_pressure;Samples;Min_cycle;Max_cycle;Signal;HPM_P1;HPM_P2
2022/04/04 00:00:27;;;;;;;14.03;11.80;;;;;;;3.36;58.26;99618.53;4107049;28;20254;-64
2022/04/04 00:02:29;;;;;;;16.13;12.13;;;;;;;2.03;62.12;99643.00;4106574;28;20239;-64
2022/04/04 00:04:30;;;;;;;15.10;11.97;;;;;;;2.80;62.07;99519.38;4105983;28;20258;-64
2022/04/04 00:06:33;;;;;;;12.97;11.13;;;;;;;2.04;61.73;99655.16;4107223;28;20234;-64
2022/04/04 00:08:34;;;;;;;13.80;11.03;;;;;;;0.72;65.21;99679.63;4107706;28;20265;-64
2022/04/04 00:10:36;;;;;;;12.60;10.60;;;;;;;1.83;62.11;99635.66;4109705;28;20273;-64
2022/04/04 00:12:38;;;;;;;12.50;10.90;;;;;;;0.79;65.27;99652.13;4109393;28;20335;-63
2022/04/04 00:14:39;;;;;;;12.37;10.87;;;;;;;1.66;63.17;99616.72;4107003;28;20268;-64
2022/04/04 00:16:41;;;;;;;12.83;10.73;;;;;;;1.07;64.34;99655.59;4109654;28;20751;-64
2022/04/04 00:18:43;;;;;;;13.23;10.27;;;;;;;1.59;62.46;99639.00;4109882;28;20362;-64
2022/04/04 00:20:44;;;;;;;12.33;10.13;;;;;;;1.04;64.90;99599.03;4110090;28;20238;-64
2022/04/04 00:22:46;;;;;;;19.60;11.13;;;;;;;1.65;63.90;99552.13;4087875;28;20242;-63
2022/04/04 00:24:48;;;;;;;12.40;9.53;;;;;;;2.68;61.47;99530.78;4108739;28;20317;-64
2022/04/04 00:26:50;;;;;;;13.33;10.13;;;;;;;3.36;58.67;99534.44;4097810;28;20274;-65
2022/04/04 00:28:51;;;;;;;11.33;10.13;;;;;;;1.61;63.53;99587.34;4092863;28;20260;-63
2022/04/04 00:30:53;;;;;;;13.20;10.93;;;;;;;2.42;61.24;99545.81;4090719;28;20239;-64
2022/04/04 00:32:55;;;;;;;16.73;11.63;;;;;;;1.94;60.19;99638.41;4092224;28;20305;-64
2022/04/04 00:34:56;;;;;;;13.77;10.77;;;;;;;1.39;62.44;99598.47;4093021;28;20268;-64
2022/04/04 00:36:58;;;;;;;14.93;11.27;;;;;;;1.25;61.93;99619.50;4092638;28;20727;-64
2022/04/04 00:39:00;;;;;;;17.00;12.83;;;;;;;1.04;62.89;99606.06;4096341;28;20266;-64
2022/04/04 00:41:07;;;;;;;17.67;13.07;;;;;;;0.81;62.93;99633.69;4090404;28;20705;-63
2022/04/04 00:43:09;;;;;;;14.67;11.90;;;;;;;1.94;60.30;99603.47;4092174;28;20265;-63
2022/04/04 00:45:11;;;;;;;15.37;12.17;;;;;;;0.77;64.02;99599.03;4093768;28;20245;-63
2022/04/04 00:47:12;;;;;;;11.47;10.00;;;;;;;1.39;62.92;99564.41;4092151;28;20378;-64
2022/04/04 00:49:14;;;;;;;11.90;10.03;;;;;;;1.93;62.15;99516.13;4094005;28;20271;-64
2022/04/04 00:51:16;;;;;;;13.83;11.30;;;;;;;1.45;60.23;99662.72;4093825;28;20263;-64
2022/04/04 00:53:17;;;;;;;10.60;9.40;;;;;;;0.64;64.55;99591.13;4092472;28;20751;-64
2022/04/04 00:55:20;;;;;;;12.43;11.13;;;;;;;1.23;63.38;99563.75;4093089;28;20239;-63
2022/04/04 00:57:22;;;;;;;14.07;10.17;;;;;;;1.45;63.23;99535.16;4093519;28;20271;-64
2022/04/04 00:59:24;;;;;;;11.37;10.17;;;;;;;1.62;62.96;99541.84;4092636;28;20266;-64
2022/04/04 01:01:25;;;;;;;13.67;11.10;;;;;;;2.76;56.82;99614.25;4093070;28;20325;-64
2022/04/04 01:03:27;;;;;;;11.87;10.03;;;;;;;2.40;59.10;99592.34;4091619;28;20257;-64
2022/04/04 01:05:30;;;;;;;12.50;10.67;;;;;;;3.84;56.48;99499.19;4092203;28;20275;-64
2022/04/04 01:07:32;;;;;;;12.13;10.70;;;;;;;3.47;56.58;99554.66;4092864;28;20235;-65
2022/04/04 01:09:34;;;;;;;14.23;11.60;;;;;;;4.30;54.68;99513.09;4095591;28;20315;-64
2022/04/04 01:11:36;;;;;;;11.60;10.00;;;;;;;3.35;54.66;99593.22;4093201;28;20252;-65
2022/04/04 01:13:45;;;;;;;11.10;9.33;;;;;;;1.29;62.42;99662.88;4092058;28;20674;-64
2022/04/04 01:15:46;;;;;;;11.27;9.70;;;;;;;3.23;58.25;99507.44;4092540;28;20254;-64
2022/04/04 01:17:49;;;;;;;10.17;9.10;;;;;;;2.44;60.90;99525.56;4093136;28;20251;-64
2022/04/04 01:19:51;;;;;;;11.90;10.60;;;;;;;2.13;60.93;99540.88;4091812;28;20657;-64
2022/04/04 01:21:53;;;;;;;11.77;9.67;;;;;;;0.71;63.07;99663.06;4091248;28;20682;-64
2022/04/04 01:23:58;;;;;;;11.77;10.30;;;;;;;0.73;64.28;99587.06;4092546;28;20240;-64
2022/04/04 01:26:00;;;;;;;13.17;9.77;;;;;;;0.16;65.34;99619.44;4092451;28;20244;-64
2022/04/04 01:28:03;;;;;;;10.27;8.97;;;;;;;0.19;66.47;99564.34;4093186;28;20666;-64
2022/04/04 01:30:07;;;;;;;11.57;9.80;;;;;;;0.20;66.22;99558.19;4093430;28;20239;-64
2022/04/04 01:32:10;;;;;;;11.43;9.23;;;;;;;0.65;63.39;99605.03;4093234;28;20285;-63
2022/04/04 01:34:11;;;;;;;10.97;9.10;;;;;;;1.36;64.21;99490.41;4090612;28;20318;-64
2022/04/04 01:36:13;;;;;;;15.13;9.90;;;;;;;0.34;65.32;99562.53;4092068;28;20681;-64
2022/04/04 01:38:14;;;;;;;12.07;9.83;;;;;;;0.46;64.86;99580.06;4093170;28;20269;-64
2022/04/04 01:40:16;;;;;;;14.17;9.93;;;;;;;0.05;65.24;99606.22;4092539;28;20235;-64
2022/04/04 01:42:18;;;;;;;10.60;9.57;;;;;;;0.44;64.99;99552.34;4096630;28;20915;-64
2022/04/04 01:44:20;;;;;;;10.10;9.00;;;;;;;1.62;61.28;99551.50;4090724;28;20267;-64
2022/04/04 01:46:24;;;;;;;10.70;9.60;;;;;;;0.83;65.24;99499.16;4092029;28;20694;-64
2022/04/04 01:48:26;;;;;;;11.73;10.30;;;;;;;0.62;63.24;99618.34;4092985;28;20231;-64
2022/04/04 01:50:28;;;;;;;12.63;10.10;;;;;;;0.94;63.77;99527.25;4093068;28;20306;-64
2022/04/04 01:52:30;;;;;;;10.87;9.20;;;;;;;-0.35;66.53;99589.44;4091209;28;20678;-64
2022/04/04 01:54:32;;;;;;;10.13;9.10;;;;;;;-0.40;67.32;99557.53;4090478;28;20231;-63
2022/04/04 01:56:34;;;;;;;10.57;8.90;;;;;;;-0.24;66.66;99552.19;4091105;28;20755;-64
2022/04/04 01:58:36;;;;;;;12.47;9.10;;;;;;;0.07;65.56;99555.50;4092413;28;20267;-64
2022/04/04 02:00:38;;;;;;;10.97;9.43;;;;;;;-0.42;66.81;99580.28;4091031;28;20243;-64
2022/04/04 02:02:40;;;;;;;9.23;7.97;;;;;;;0.24;64.92;99570.13;4092816;28;20347;-64
2022/04/04 02:04:42;;;;;;;11.70;9.20;;;;;;;0.93;63.72;99509.84;4091418;28;20620;-64
2022/04/04 02:06:44;;;;;;;13.73;9.30;;;;;;;1.59;59.87;99568.25;4092391;28;20271;-64
2022/04/04 02:08:47;;;;;;;9.67;8.07;;;;;;;-0.16;66.28;99546.50;4094041;28;20289;-64
2022/04/04 02:10:48;;;;;;;9.77;8.77;;;;;;;0.89;63.38;99498.75;4092671;28;20309;-64
2022/04/04 02:12:50;;;;;;;9.23;7.83;;;;;;;-0.41;65.25;99587.19;4091427;28;20630;-64
2022/04/04 02:14:52;;;;;;;11.03;8.53;;;;;;;0.22;64.48;99522.31;4092069;28;20350;-64
2022/04/04 02:16:53;;;;;;;9.17;8.23;;;;;;;1.13;61.10;99543.41;4090720;28;20240;-64
2022/04/04 02:18:55;;;;;;;10.07;9.03;;;;;;;-0.38;66.03;99554.78;4092081;28;20261;-64
2022/04/04 02:20:58;;;;;;;11.43;8.33;;;;;;;1.18;62.35;99482.88;4092680;28;20254;-64
2022/04/04 02:23:00;;;;;;;10.73;8.63;;;;;;;1.08;61.63;99528.97;4091790;28;20828;-63
2022/04/04 02:25:03;;;;;;;10.37;8.40;;;;;;;1.16;62.19;99499.66;4090666;28;20244;-64
2022/04/04 02:27:05;;;;;;;12.07;8.97;;;;;;;-0.02;63.30;99605.75;4091707;28;20677;-64
2022/04/04 02:29:07;;;;;;;11.77;8.83;;;;;;;0.22;64.48;99532.78;4092589;28;20270;-64
2022/04/04 02:31:08;;;;;;;9.30;8.30;;;;;;;1.49;61.48;99501.69;4087348;28;20261;-63
2022/04/04 02:33:12;;;;;;;10.10;8.23;;;;;;;2.63;58.50;99485.66;4090764;28;20250;-64
2022/04/04 02:35:13;;;;;;;9.90;8.90;;;;;;;3.31;55.44;99512.91;4087543;29;20246;-64
2022/04/04 02:37:16;;;;;;;13.63;10.27;;;;;;;3.82;54.71;99489.75;4092383;28;20624;-64
2022/04/04 02:39:17;;;;;;;11.80;9.93;;;;;;;3.43;54.53;99526.94;4095068;28;20239;-64
2022/04/04 02:41:19;;;;;;;12.07;10.10;;;;;;;3.10;56.17;99549.56;4094195;28;20265;-64
2022/04/04 02:43:21;;;;;;;13.07;10.13;;;;;;;3.49;55.26;99517.75;4087123;28;20255;-64
2022/04/04 02:45:24;;;;;;;13.70;10.27;;;;;;;3.34;55.61;99541.59;4092289;28;20245;-64
2022/04/04 02:47:26;;;;;;;12.10;10.37;;;;;;;3.40;55.34;99550.81;4095693;28;20644;-64
2022/04/04 02:49:30;;;;;;;14.73;11.27;;;;;;;3.71;55.24;99519.53;4094891;28;20319;-64
2022/04/04 02:51:33;;;;;;;15.20;11.87;;;;;;;3.41;55.80;99541.13;4091316;28;20256;-64
2022/04/04 02:53:34;;;;;;;13.60;11.33;;;;;;;3.40;55.41;99542.94;4089888;28;20269;-64
2022/04/04 02:57:57;;;;;;;15.50;11.43;;;;;;;3.55;55.14;99539.13;4088651;28;20247;-64
2022/04/04 02:59:58;;;;;;;12.87;11.23;;;;;;;3.50;55.29;99557.06;4091851;28;20281;-64
2022/04/04 03:02:00;;;;;;;14.17;12.20;;;;;;;4.02;53.71;99510.06;4091896;28;20278;-63
2022/04/04 03:04:02;;;;;;;12.73;10.67;;;;;;;4.28;53.07;99510.59;4090601;28;20243;-64
2022/04/04 03:06:04;;;;;;;11.87;10.33;;;;;;;4.07;53.49;99531.59;4092311;28;20239;-64
2022/04/04 03:08:06;;;;;;;16.07;12.13;;;;;;;4.61;52.13;99486.88;4092280;28;20872;-64
2022/04/04 03:10:10;;;;;;;14.50;11.67;;;;;;;3.69;54.12;99558.28;4092510;28;20788;-64
2022/04/04 03:12:12;;;;;;;13.13;10.50;;;;;;;4.18;53.41;99541.22;4087718;28;20235;-64
2022/04/04 03:14:13;;;;;;;15.43;11.37;;;;;;;3.55;54.93;99594.34;4089739;28;20259;-64
2022/04/04 03:16:15;;;;;;;12.57;11.20;;;;;;;4.52;52.77;99511.34;4091936;28;20267;-64
2022/04/04 03:18:17;;;;;;;13.23;11.07;;;;;;;4.66;52.44;99500.50;4091532;28;20315;-64
2022/04/04 03:20:25;;;;;;;15.87;11.57;;;;;;;3.53;55.65;99567.34;4091859;28;20262;-64
2022/04/04 03:22:26;;;;;;;14.53;11.37;;;;;;;3.36;55.57;99575.63;4091768;28;20235;-63
2022/04/04 03:24:28;;;;;;;14.33;11.83;;;;;;;3.02;56.53;99584.25;4090422;28;20243;-64
2022/04/04 03:26:31;;;;;;;15.67;12.20;;;;;;;4.27;54.00;99474.69;4091389;28;20245;-64
2022/04/04 03:28:33;;;;;;;15.90;12.83;;;;;;;3.94;54.23;99539.59;4091967;28;20783;-64
2022/04/04 03:30:35;;;;;;;17.83;13.80;;;;;;;4.01;53.95;99550.47;4090642;28;20771;-64
2022/04/04 03:32:37;;;;;;;15.07;12.37;;;;;;;3.87;53.78;99562.09;4091861;28;20867;-64
2022/04/04 03:34:38;;;;;;;19.23;14.03;;;;;;;3.66;54.41;99553.25;4090974;28;20271;-66
2022/04/04 03:36:40;;;;;;;16.13;11.87;;;;;;;3.42;54.89;99569.09;4088052;28;20263;-66
2022/04/04 03:38:42;;;;;;;15.37;11.83;;;;;;;3.47;54.25;99566.97;4088124;28;20263;-64
2022/04/04 03:40:44;;;;;;;13.10;10.33;;;;;;;1.82;56.74;99660.22;4086834;28;20313;-64
2022/04/04 03:42:49;;;;;;;13.57;10.47;;;;;;;0.91;62.00;99648.69;4085154;28;20244;-64
2022/04/04 03:44:51;;;;;;;13.83;10.57;;;;;;;3.07;56.76;99484.09;4087451;28;20335;-65
2022/04/04 03:46:52;;;;;;;12.80;10.50;;;;;;;2.91;55.86;99573.75;4092898;28;20323;-64
2022/04/04 03:48:54;;;;;;;11.63;10.13;;;;;;;3.52;55.07;99522.78;4091362;28;20326;-65
2022/04/04 03:50:56;;;;;;;12.00;10.00;;;;;;;4.08;54.12;99492.94;4094556;28;20267;-65
2022/04/04 03:52:57;;;;;;;12.33;10.00;;;;;;;3.20;56.71;99510.28;4092956;28;20739;-65
2022/04/04 03:55:00;;;;;;;11.77;10.00;;;;;;;2.06;60.26;99563.25;4093946;28;20244;-65
2022/04/04 03:57:02;;;;;;;12.13;10.43;;;;;;;2.65;58.87;99491.63;4093583;28;21166;-65
2022/04/04 03:59:04;;;;;;;11.73;10.53;;;;;;;2.39;58.71;99519.81;4093161;28;20250;-65
2022/04/04 04:01:06;;;;;;;12.87;10.33;;;;;;;2.20;58.41;99555.25;4093899;28;20278;-64
2022/04/04 04:03:09;;;;;;;13.77;10.53;;;;;;;1.14;63.20;99531.19;4087753;28;20246;-65
2022/04/04 04:05:11;;;;;;;12.07;10.77;;;;;;;1.63;61.71;99509.44;4092837;28;20320;-65
2022/04/04 04:07:16;;;;;;;15.67;10.70;;;;;;;0.91;64.04;99543.97;4093894;28;20776;-65
2022/04/04 04:09:17;;;;;;;12.53;10.77;;;;;;;1.05;63.87;99505.59;4096604;28;20246;-65
2022/04/04 04:11:19;;;;;;;12.23;10.60;;;;;;;0.71;65.78;99482.47;4093930;28;20275;-64
2022/04/04 04:13:21;;;;;;;13.83;11.90;;;;;;;0.86;63.32;99556.53;4093424;28;20254;-64
2022/04/04 04:15:24;;;;;;;15.67;11.00;;;;;;;2.33;60.06;99471.22;4093659;28;20235;-65
2022/04/04 04:17:25;;;;;;;14.13;11.60;;;;;;;2.21;58.76;99556.09;4093170;28;20267;-65
2022/04/04 04:21:47;;;;;;;16.73;12.60;;;;;;;-0.02;65.92;99603.16;4117479;28;20899;-65
2022/04/04 04:23:48;;;;;;;14.17;11.97;;;;;;;1.54;63.23;99457.66;4093751;28;20289;-65
2022/04/04 04:25:50;;;;;;;13.90;12.17;;;;;;;1.12;63.33;99562.69;4092622;28;20235;-65
2022/04/04 04:27:52;;;;;;;15.73;11.27;;;;;;;0.71;61.74;99633.44;4093316;28;20308;-65
2022/04/04 04:29:54;;;;;;;17.07;12.03;;;;;;;1.50;61.79;99532.22;4092373;28;20277;-65
2022/04/04 04:31:56;;;;;;;16.20;12.90;;;;;;;0.45;62.25;99653.41;4094255;28;20302;-65
2022/04/04 04:33:58;;;;;;;15.63;12.33;;;;;;;3.12;57.52;99439.91;4093277;28;20243;-65
2022/04/04 04:36:00;;;;;;;15.77;11.93;;;;;;;2.14;60.13;99497.97;4093047;28;20259;-65
2022/04/04 04:38:02;;;;;;;13.70;12.10;;;;;;;1.99;59.55;99513.03;4093622;28;20228;-65
2022/04/04 04:40:05;;;;;;;16.10;11.63;;;;;;;1.62;59.99;99520.03;4097327;28;20245;-64
2022/04/04 04:42:07;;;;;;;16.53;12.80;;;;;;;0.27;63.87;99535.09;4093072;28;20240;-65
2022/04/04 04:44:09;;;;;;;15.13;12.10;;;;;;;0.95;60.28;99553.31;4093118;28;20318;-65
2022/04/04 04:46:10;;;;;;;15.70;12.57;;;;;;;-0.51;63.59;99609.56;4093963;28;20263;-65
2022/04/04 04:48:12;;;;;;;13.37;11.30;;;;;;;1.17;61.46;99456.78;4092223;28;20294;-65
2022/04/04 04:50:16;;;;;;;16.47;11.90;;;;;;;0.88;60.48;99532.88;4092817;28;20241;-65
2022/04/04 04:52:17;;;;;;;15.10;12.03;;;;;;;-0.43;63.28;99555.09;4092331;28;20284;-65
2022/04/04 04:54:20;;;;;;;13.33;11.80;;;;;;;-0.07;61.50;99586.91;4090007;28;20266;-65
2022/04/04 04:56:21;;;;;;;11.73;9.90;;;;;;;-1.32;65.93;99552.50;4090033;28;20340;-65
2022/04/04 04:58:30;;;;;;;14.77;11.60;;;;;;;0.88;61.16;99428.16;4093620;28;20271;-65
2022/04/04 05:00:32;;;;;;;13.57;10.83;;;;;;;-0.45;63.92;99506.47;4092308;28;20269;-65
2022/04/04 05:02:34;;;;;;;13.70;9.63;;;;;;;-1.68;65.89;99536.25;4093258;28;20258;-65
2022/04/04 05:04:36;;;;;;;12.67;10.90;;;;;;;0.15;62.89;99430.34;4092955;28;20225;-65
2022/04/04 05:06:37;;;;;;;14.07;10.27;;;;;;;0.74;59.64;99473.59;4093584;28;20324;-64
2022/04/04 05:08:39;;;;;;;14.03;11.20;;;;;;;0.78;59.61;99454.97;4092520;28;20269;-65
2022/04/04 05:10:41;;;;;;;12.67;10.37;;;;;;;-1.37;63.83;99550.16;4093221;28;20263;-65
2022/04/04 05:12:42;;;;;;;13.50;10.60;;;;;;;-0.09;62.29;99452.84;4093246;28;20739;-65
2022/04/04 05:14:44;;;;;;;10.33;8.70;;;;;;;-0.93;62.51;99536.28;4091353;28;20264;-65
2022/04/04 05:16:47;;;;;;;13.47;10.33;;;;;;;-1.08;64.10;99509.31;4092227;28;20277;-64
2022/04/04 05:18:48;;;;;;;12.40;10.40;;;;;;;0.25;60.38;99497.75;4093654;28;20323;-64
2022/04/04 05:20:50;;;;;;;10.80;9.63;;;;;;;0.98;59.70;99413.53;4093155;28;20265;-65
2022/04/04 05:22:52;;;;;;;14.33;11.77;;;;;;;1.18;58.20;99480.25;4091225;28;20245;-64
2022/04/04 05:24:53;;;;;;;13.50;10.73;;;;;;;1.04;59.01;99456.81;4087821;28;20279;-65
2022/04/04 05:26:56;;;;;;;12.63;11.00;;;;;;;0.93;59.04;99502.00;4091715;28;20265;-65
2022/04/04 05:28:58;;;;;;;14.70;10.60;;;;;;;0.59;60.68;99481.53;4093211;28;20254;-65
2022/04/04 05:31:05;;;;;;;17.93;11.13;;;;;;;2.00;57.11;99448.28;4092786;28;20245;-65
2022/04/04 05:33:09;;;;;;;12.87;10.77;;;;;;;1.98;57.26;99481.66;4092247;28;20640;-65
2022/04/04 05:35:15;;;;;;;15.77;10.70;;;;;;;0.89;59.85;99572.03;4102115;28;20234;-64
2022/04/04 05:37:17;;;;;;;11.17;10.07;;;;;;;-0.90;64.18;99648.38;4099571;28;20235;-65
2022/04/04 05:39:19;;;;;;;14.83;11.00;;;;;;;0.14;63.72;99494.03;4092414;28;20261;-65
2022/04/04 05:41:21;;;;;;;13.67;10.80;;;;;;;-1.15;66.61;99601.13;4088989;28;20255;-65
2022/04/04 05:43:23;;;;;;;17.77;11.20;;;;;;;0.08;65.22;99509.31;4091999;28;20671;-65
2022/04/04 05:45:25;;;;;;;13.93;12.07;;;;;;;0.11;62.22;99606.69;4093083;28;20264;-65
2022/04/04 05:47:27;;;;;;;13.13;10.60;;;;;;;0.53;64.04;99465.38;4092290;28;20273;-65
2022/04/04 05:49:29;;;;;;;15.47;11.80;;;;;;;0.37;63.99;99510.88;4091596;28;20259;-65
2022/04/04 05:51:31;;;;;;;12.03;10.50;;;;;;;0.81;62.35;99510.69;4092037;28;20242;-65
2022/04/04 05:53:53;;;;;;;12.90;11.50;;;;;;;1.77;59.85;99481.44;4085529;28;21015;-64
2022/04/04 05:55:54;;;;;;;14.57;11.50;;;;;;;1.82;59.31;99497.66;4092702;28;20261;-65
2022/04/04 05:57:56;;;;;;;16.50;13.17;;;;;;;2.21;59.49;99443.28;4093324;28;20255;-65
2022/04/04 05:59:58;;;;;;;17.33;11.90;;;;;;;1.60;60.24;99525.38;4104126;28;20244;-65
2022/04/04 06:01:59;;;;;;;17.90;11.77;;;;;;;1.14;60.23;99589.63;4175811;28;20235;-65
2022/04/04 06:04:02;;;;;;;14.53;11.50;;;;;;;0.13;64.59;99603.97;4175332;28;20314;-65
2022/04/04 06:06:04;;;;;;;15.83;11.60;;;;;;;0.90;64.44;99482.13;4164688;28;20231;-65
2022/04/04 06:08:06;;;;;;;15.03;12.40;;;;;;;1.56;62.02;99505.59;4174982;28;20742;-65
2022/04/04 06:10:09;;;;;;;15.90;13.40;;;;;;;0.62;62.30;99611.31;4154420;28;20373;-65
2022/04/04 06:12:11;;;;;;;13.00;11.33;;;;;;;1.32;63.05;99501.09;4168979;28;20809;-65
2022/04/04 06:14:13;;;;;;;17.13;12.30;;;;;;;2.35;60.65;99442.25;4159139;28;20270;-65
2022/04/04 06:16:14;;;;;;;12.33;10.90;;;;;;;2.30;60.71;99497.69;4165383;28;20253;-65
2022/04/04 06:18:16;;;;;;;15.23;11.87;;;;;;;0.68;62.96;99615.31;4154771;28;20715;-65
2022/04/04 06:20:18;;;;;;;13.83;11.27;;;;;;;1.51;62.31;99523.41;4157579;28;20240;-65
2022/04/04 06:22:19;;;;;;;13.57;11.57;;;;;;;1.49;63.54;99499.09;4080201;28;20265;-65
2022/04/04 06:24:22;;;;;;;13.87;11.73;;;;;;;1.28;63.61;99527.63;4078301;28;20331;-65
2022/04/04 06:26:23;;;;;;;14.50;11.87;;;;;;;1.62;63.53;99463.22;4078337;28;20235;-64
2022/04/04 06:28:27;;;;;;;14.63;11.10;;;;;;;1.73;62.90;99488.69;4077522;28;20573;-65
2022/04/04 06:30:29;;;;;;;14.73;12.30;;;;;;;2.37;60.83;99475.31;4079245;28;20806;-65
2022/04/04 06:32:31;;;;;;;15.00;11.40;;;;;;;2.15;61.42;99501.44;4070111;28;20289;-65
2022/04/04 06:34:32;;;;;;;14.17;11.20;;;;;;;2.53;60.17;99488.13;4076439;28;20266;-65
2022/04/04 06:36:40;;;;;;;16.83;10.70;;;;;;;1.94;61.40;99523.00;4078495;28;20365;-65
2022/04/04 06:38:42;;;;;;;13.43;11.33;;;;;;;1.85;61.31;99550.72;4073636;28;20255;-64
2022/04/04 06:40:44;;;;;;;12.17;10.07;;;;;;;2.30;61.16;99489.81;4071458;28;20296;-64
2022/04/04 06:42:49;;;;;;;12.80;10.77;;;;;;;1.09;62.30;99627.53;4069853;28;20300;-64
2022/04/04 06:44:54;;;;;;;15.87;11.80;;;;;;;1.58;61.99;99553.50;4070862;28;20282;-64
2022/04/04 06:46:56;;;;;;;11.47;10.27;;;;;;;2.27;61.37;99495.31;4080013;28;20243;-65
2022/04/04 06:48:58;;;;;;;13.43;11.33;;;;;;;2.78;60.34;99454.81;4081990;28;20250;-64
2022/04/04 06:51:01;;;;;;;12.73;11.07;;;;;;;2.37;61.47;99490.22;4092497;28;20227;-64
2022/04/04 06:53:02;;;;;;;13.90;11.03;;;;;;;3.08;59.66;99440.28;4088695;28;20666;-65
2022/04/04 06:55:20;;;;;;;12.77;11.27;;;;;;;2.29;60.96;99532.78;4074992;28;20321;-64
2022/04/04 06:57:22;;;;;;;12.83;11.53;;;;;;;2.14;62.18;99490.13;4080420;28;20262;-65
2022/04/04 06:59:23;;;;;;;12.80;11.50;;;;;;;1.02;64.84;99545.06;4074997;28;20270;-65
2022/04/04 07:01:25;;;;;;;13.73;11.60;;;;;;;1.35;62.30;99577.81;4070559;28;20293;-65
2022/04/04 07:03:27;;;;;;;11.77;10.20;;;;;;;2.43;61.29;99430.25;4078414;28;20430;-64
2022/04/04 07:05:29;;;;;;;14.90;10.63;;;;;;;3.04;59.01;99451.97;4069913;28;21073;-65
2022/04/04 07:07:31;;;;;;;12.73;11.23;;;;;;;2.49;59.72;99533.94;4080531;28;20231;-64
2022/04/04 07:09:34;;;;;;;13.63;11.50;;;;;;;2.20;61.34;99542.16;4069554;28;20333;-64
2022/04/04 07:11:35;;;;;;;13.33;10.87;;;;;;;1.96;61.78;99576.19;4082679;28;20239;-65
2022/04/04 07:13:37;;;;;;;10.73;9.63;;;;;;;2.79;59.60;99487.97;4080793;28;20239;-64
2022/04/04 07:15:41;;;;;;;12.27;10.20;;;;;;;3.05;58.70;99514.91;4134634;28;20326;-64
2022/04/04 07:17:44;;;;;;;12.17;10.00;;;;;;;0.98;62.60;99632.63;4150583;28;20245;-65
2022/04/04 07:19:46;;;;;;;13.83;11.50;;;;;;;2.74;60.41;99484.84;4151339;28;20311;-65
2022/04/04 07:21:51;;;;;;;16.10;11.00;;;;;;;3.35;59.02;99466.22;4088468;28;20755;-65
2022/04/04 07:23:52;;;;;;;13.80;10.83;;;;;;;3.64;56.75;99455.25;4083453;28;20312;-64
2022/04/04 07:25:54;;;;;;;13.73;11.97;;;;;;;3.01;58.66;99524.81;4150264;28;20259;-64
2022/04/04 07:27:56;;;;;;;11.90;8.87;;;;;;;3.20;58.38;99479.59;4155763;28;20789;-64
2022/04/04 07:29:57;;;;;;;13.17;11.00;;;;;;;2.91;58.71;99528.22;4155841;28;20245;-65
2022/04/04 07:31:59;;;;;;;14.97;11.73;;;;;;;2.85;60.29;99507.72;4172578;28;20252;-64
2022/04/04 07:34:02;;;;;;;13.70;9.47;;;;;;;3.12;59.62;99453.06;4156610;28;20319;-64
2022/04/04 07:36:04;;;;;;;13.90;10.90;;;;;;;3.51;58.99;99436.97;4154468;28;20782;-65
2022/04/04 07:38:05;;;;;;;11.53;10.27;;;;;;;3.54;58.09;99465.66;4163448;28;20321;-65
2022/04/04 07:40:10;;;;;;;10.60;9.50;;;;;;;4.11;57.36;99425.09;4150725;28;20239;-64
2022/04/04 07:42:13;;;;;;;12.87;10.63;;;;;;;4.21;56.59;99417.31;4155191;28;20246;-64
2022/04/04 07:44:14;;;;;;;11.90;10.37;;;;;;;3.47;57.75;99470.53;4161668;28;20271;-65
2022/04/04 07:46:16;;;;;;;11.73;9.03;;;;;;;3.41;57.61;99496.44;4168779;28;20713;-65
2022/04/04 07:48:18;;;;;;;11.47;10.07;;;;;;;3.84;57.74;99438.72;4166304;28;20245;-65
2022/04/04 07:50:21;;;;;;;12.03;9.70;;;;;;;2.56;61.29;99519.41;4159026;28;20240;-65
2022/04/04 07:52:22;;;;;;;13.07;10.90;;;;;;;3.75;57.65;99442.91;4169050;28;20236;-65
2022/04/04 07:54:24;;;;;;;11.73;10.37;;;;;;;4.08;56.42;99429.78;4158281;28;20270;-65
2022/04/04 07:56:26;;;;;;;10.67;9.27;;;;;;;3.71;57.51;99478.28;4154167;28;20319;-65
2022/04/04 07:58:27;;;;;;;11.20;10.00;;;;;;;3.55;57.36;99481.31;4155320;28;20263;-64
2022/04/04 08:00:29;;;;;;;9.90;8.87;;;;;;;3.16;59.62;99457.13;4158251;28;20323;-65
2022/04/04 08:02:30;;;;;;;10.83;9.43;;;;;;;3.31;58.10;99489.25;4163928;28;20263;-64
2022/04/04 08:04:32;;;;;;;12.07;10.30;;;;;;;3.27;58.40;99508.03;4118379;28;20291;-65
2022/04/04 08:06:34;;;;;;;14.43;9.93;;;;;;;4.30;56.50;99413.06;4081225;28;20275;-65
2022/04/04 08:08:36;;;;;;;11.73;10.40;;;;;;;3.98;57.60;99461.25;4088018;28;20698;-65
2022/04/04 08:10:37;;;;;;;10.13;7.63;;;;;;;3.22;58.76;99505.75;4082442;28;20315;-65
2022/04/04 08:12:39;;;;;;;10.30;9.10;;;;;;;3.72;56.90;99443.16;4087685;28;20732;-64
2022/04/04 08:14:41;;;;;;;10.93;9.40;;;;;;;3.73;57.11;99439.53;4075533;28;20296;-65
2022/04/04 08:16:42;;;;;;;10.47;9.30;;;;;;;2.71;60.54;99530.56;4077359;28;20276;-65
2022/04/04 08:18:44;;;;;;;13.17;8.70;;;;;;;3.98;56.71;99437.59;4072172;28;20786;-64
2022/04/04 08:20:46;;;;;;;9.00;8.10;;;;;;;3.54;57.28;99497.19;4072658;28;21206;-65
2022/04/04 08:23:02;;;;;;;10.00;7.67;;;;;;;3.67;57.39;99468.16;4081633;28;20248;-65
2022/04/04 08:25:04;;;;;;;9.23;8.27;;;;;;;4.00;57.13;99435.66;4070998;28;20937;-65
2022/04/04 08:27:07;;;;;;;11.93;7.97;;;;;;;3.45;57.98;99461.94;4072287;28;20643;-65
2022/04/04 08:29:09;;;;;;;8.40;7.37;;;;;;;3.87;57.09;99445.50;4074359;28;20342;-65
2022/04/04 08:31:11;;;;;;;9.77;7.93;;;;;;;4.78;55.13;99380.97;4079258;28;21551;-65
2022/04/04 08:33:12;;;;;;;11.57;8.93;;;;;;;4.85;54.31;99368.94;4082204;28;20260;-65
2022/04/04 08:35:15;;;;;;;11.00;9.23;;;;;;;5.21;53.55;99368.53;4082246;28;20269;-65
2022/04/04 08:37:17;;;;;;;10.97;8.67;;;;;;;5.17;52.75;99359.19;4071721;28;20756;-65
2022/04/04 08:39:19;;;;;;;9.13;8.07;;;;;;;4.42;54.71;99437.53;4080551;28;20276;-65
2022/04/04 08:41:25;;;;;;;8.57;7.60;;;;;;;4.68;54.15;99399.34;4085663;28;20262;-65
2022/04/04 08:43:28;;;;;;;9.17;7.73;;;;;;;5.76;52.61;99339.94;4083040;28;20246;-66
2022/04/04 08:45:31;;;;;;;9.23;7.53;;;;;;;5.15;52.06;99355.88;4088610;28;20229;-65
2022/04/04 08:47:33;;;;;;;8.13;7.33;;;;;;;5.23;52.31;99380.59;4081935;28;20246;-65
2022/04/04 08:49:34;;;;;;;9.00;7.13;;;;;;;5.63;51.72;99359.63;4072538;28;20263;-65
2022/04/04 08:51:36;;;;;;;8.57;7.00;;;;;;;5.29;50.81;99366.06;4072727;28;20267;-65
2022/04/04 08:53:38;;;;;;;10.07;6.83;;;;;;;5.35;51.53;99378.72;4072484;28;20235;-65
2022/04/04 08:55:40;;;;;;;10.27;7.30;;;;;;;5.20;50.55;99358.94;4072283;28;20330;-65
2022/04/04 08:57:42;;;;;;;9.37;6.90;;;;;;;4.22;53.72;99465.50;4082819;28;20257;-65
2022/04/04 08:59:44;;;;;;;7.80;7.00;;;;;;;4.72;51.30;99401.72;4073466;28;20318;-65
2022/04/04 09:01:47;;;;;;;8.77;6.43;;;;;;;5.80;50.28;99341.31;4082353;28;20236;-65
2022/04/04 09:04:01;;;;;;;9.57;7.30;;;;;;;5.93;51.44;99342.88;4082642;28;20620;-65
2022/04/04 09:06:05;;;;;;;9.63;7.10;;;;;;;4.85;51.99;99431.34;4069591;28;20607;-65
2022/04/04 09:08:07;;;;;;;8.07;6.87;;;;;;;4.45;50.74;99374.13;4080957;28;20250;-65
2022/04/04 09:10:13;;;;;;;9.13;7.20;;;;;;;5.74;50.42;99327.84;4078881;28;20263;-65
2022/04/04 09:12:17;;;;;;;7.93;6.80;;;;;;;5.78;51.29;99347.72;4074302;28;20253;-65
2022/04/04 09:14:24;;;;;;;8.10;6.77;;;;;;;5.23;51.58;99374.50;4081912;28;20337;-65
2022/04/04 09:16:25;;;;;;;7.97;6.80;;;;;;;5.11;52.23;99375.56;4082010;28;20230;-65
2022/04/04 09:18:36;;;;;;;7.60;6.50;;;;;;;4.94;51.95;99408.63;4074822;28;20328;-65
2022/04/04 09:20:47;;;;;;;8.03;6.53;;;;;;;5.88;51.47;99316.06;4071804;28;20927;-65
2022/04/04 09:22:52;;;;;;;10.37;6.80;;;;;;;6.34;49.70;99303.91;4079822;28;20303;-65
2022/04/04 09:24:56;;;;;;;8.53;7.23;;;;;;;6.82;49.92;99284.44;4072458;28;20876;-65
2022/04/04 09:27:09;;;;;;;9.43;7.40;;;;;;;6.78;50.73;99288.31;4079958;28;20250;-65
2022/04/04 09:29:12;;;;;;;9.77;7.87;;;;;;;5.68;50.13;99284.38;4069458;28;20330;-65
2022/04/04 09:31:14;;;;;;;8.03;6.90;;;;;;;6.35;50.11;99300.31;4069945;28;20254;-65
2022/04/04 09:33:34;;;;;;;8.23;7.10;;;;;;;5.94;52.14;99318.13;4080818;28;20244;-65
2022/04/04 09:35:47;;;;;;;7.97;7.13;;;;;;;5.75;52.23;99319.78;4079000;28;21113;-65
2022/04/04 09:37:50;;;;;;;10.70;7.57;;;;;;;5.09;51.53;99388.88;4071107;28;21071;-65